الصفحة الرئيسية
METAR-TAF:

METAR-TAF

مطار :

أنكوراج, ألاسكا, الولايات المتحدة

دائرة عرض: 61-13N, خط طول: 149-51W, ارتفاع: 42 متر

مراقبة الطقس الحالي

تاريخ ووقت الإصدار 42 دقيقة قبل الساعة 19:53UTC
ريح 6 عقدة من الشمال
درجة الحرارة 11°درجة مئوية
الرطوبة 66%
ضغط 1016 hPa
الرؤية: 16.1 كم
غيوم قليلة على ارتفاع 2200 قدم
ملبد بالغيوم على ارتفاع 8000 قدم

METAR: PAMR 291953Z 35006KT 10SM FEW022 OVC080 11/05 A2999 RMK AO2 SLP155 T01060050

زمن: 12:35 (20:35 UTC)


TAF: مفقودة

أرصاد الطقس والتوقعات من أكثر من 4000 مطار (تقارير الطقس للمطار METAR والتنبؤ بالطقس بالمطارTAF).

المحطات المتاحة هي النقط الصفراء والحمراء على الخريطة.

حرك المؤشر فوق النقطة لمعرفة اسم المحطة.

ثم انقر لمعرفة أرصاد وتوقعات الطقس.

لتغيير الخارطة: اضغط على الأزرار الخضراء مع رمز الصليب الأسود للتكبير. على الزر الأخضر مع شرطة للتصغير، أو على الأسهم الخضراء للخرائط المجاورة.


METAR-TAF: